Time;durP1;ratioP1;P1;durP2;ratioP2;P2;SDS_P1;SDS_P2;PMS_P1;PMS_P2;Temp;Humidity;BMP_temperature;BMP_pressure;BME280_temperature;BME280_humidity;BME280_pressure;Samples;Min_cycle;Max_cycle;Signal;HPM_P1;HPM_P2
2022/12/20 00:02:38;;;;;;;40.55;20.10;;;;;;;1.72;100.00;99123.84;10360386;28;20503;-78
2022/12/20 00:07:39;;;;;;;39.20;20.42;;;;;;;1.73;100.00;99116.69;10360870;28;20042;-78
2022/12/20 00:12:40;;;;;;;38.20;16.95;;;;;;;1.86;100.00;99109.22;10351559;28;20078;-78
2022/12/20 00:17:40;;;;;;;34.58;18.15;;;;;;;1.76;100.00;99097.69;10370419;28;20066;-77
2022/12/20 00:22:41;;;;;;;34.88;17.15;;;;;;;1.80;100.00;99104.88;10363819;28;20121;-77
2022/12/20 00:27:41;;;;;;;36.83;19.80;;;;;;;1.88;100.00;99115.06;10387921;28;20080;-79
2022/12/20 00:32:42;;;;;;;38.65;19.95;;;;;;;1.91;100.00;99124.34;10365387;28;20161;-79
2022/12/20 00:37:43;;;;;;;42.40;20.67;;;;;;;2.04;100.00;99124.00;10360982;28;20449;-77
2022/12/20 00:42:45;;;;;;;39.70;21.20;;;;;;;1.99;100.00;99121.28;10355994;28;20096;-77
2022/12/20 00:47:45;;;;;;;40.05;20.88;;;;;;;2.28;100.00;99112.06;10360073;28;20078;-78
2022/12/20 00:52:46;;;;;;;38.90;20.45;;;;;;;2.33;100.00;99123.78;10359208;28;20572;-78
2022/12/20 00:57:46;;;;;;;37.40;20.77;;;;;;;2.37;100.00;99119.59;10366077;28;20042;-77
2022/12/20 01:02:47;;;;;;;39.10;19.77;;;;;;;2.32;100.00;99098.34;10351315;28;20119;-78
2022/12/20 01:07:48;;;;;;;36.40;19.58;;;;;;;2.21;100.00;99082.38;10361595;28;20108;-78
2022/12/20 01:12:48;;;;;;;42.13;21.10;;;;;;;2.20;100.00;99106.44;10359688;28;20128;-78
2022/12/20 01:17:50;;;;;;;39.72;20.88;;;;;;;2.19;100.00;99102.97;10370247;28;20038;-78
2022/12/20 01:22:50;;;;;;;39.08;20.08;;;;;;;2.22;100.00;99089.25;10356464;28;20072;-78
2022/12/20 01:27:51;;;;;;;38.90;20.05;;;;;;;2.20;100.00;99088.72;10364424;28;20053;-78
2022/12/20 01:32:52;;;;;;;41.70;22.15;;;;;;;2.08;100.00;99079.28;10362009;28;20558;-78
2022/12/20 01:37:52;;;;;;;38.00;21.13;;;;;;;2.24;100.00;99091.66;10362088;28;20042;-78
2022/12/20 01:42:53;;;;;;;37.50;19.80;;;;;;;2.38;100.00;99089.41;10372238;28;20116;-78
2022/12/20 01:47:55;;;;;;;37.08;20.23;;;;;;;2.14;100.00;99097.63;10360234;28;20046;-79
2022/12/20 01:52:58;;;;;;;34.40;19.58;;;;;;;2.16;100.00;99098.19;10360007;28;20471;-78
2022/12/20 01:58:08;;;;;;;;;;;;;;;2.27;100.00;99110.47;10357107;28;20046;-79
2022/12/20 02:03:11;;;;;;;39.50;20.00;;;;;;;2.17;100.00;99098.97;10359548;28;20019;-81
2022/12/20 02:08:15;;;;;;;38.72;20.85;;;;;;;2.23;100.00;99077.59;10366552;28;20050;-80
2022/12/20 02:13:35;;;;;;;39.58;21.65;;;;;;;2.22;100.00;99076.00;10354236;28;20089;-79
2022/12/20 02:18:52;;;;;;;44.88;22.05;;;;;;;2.18;100.00;99074.91;10385916;28;20069;-78
2022/12/20 02:24:06;;;;;;;43.80;21.45;;;;;;;2.06;100.00;99054.91;10430241;28;20028;-75
2022/12/20 02:29:24;;;;;;;39.05;21.02;;;;;;;1.97;100.00;99041.31;10402708;28;20038;-77
2022/12/20 02:34:27;;;;;;;34.58;20.15;;;;;;;2.14;100.00;99015.53;10393375;28;20055;-77
2022/12/20 02:39:29;;;;;;;40.22;21.00;;;;;;;2.11;100.00;99005.47;10377498;28;20125;-83
2022/12/20 02:49:55;;;;;;;40.10;21.20;;;;;;;2.30;100.00;99013.84;10364665;28;20053;-81
2022/12/20 02:54:56;;;;;;;44.28;20.90;;;;;;;2.42;100.00;98997.78;10370268;28;20062;-86
2022/12/20 03:00:05;;;;;;;37.58;20.08;;;;;;;2.43;100.00;99007.34;10399053;28;20092;-81
2022/12/20 03:05:07;;;;;;;43.50;21.33;;;;;;;2.44;100.00;99027.47;10365323;28;20487;-82
2022/12/20 03:10:10;;;;;;;37.22;20.08;;;;;;;2.59;100.00;99038.22;10381713;28;20050;-80
2022/12/20 03:15:11;;;;;;;42.03;20.90;;;;;;;2.56;100.00;99020.16;10360082;28;20502;-83
2022/12/20 03:20:12;;;;;;;39.20;20.88;;;;;;;2.34;100.00;98999.06;10359071;28;20060;-79
2022/12/20 03:25:13;;;;;;;38.03;19.38;;;;;;;2.28;100.00;99055.66;10359913;28;20482;-79
2022/12/20 03:30:14;;;;;;;37.50;19.95;;;;;;;2.32;100.00;99040.09;10345392;28;20481;-80
2022/12/20 03:35:16;;;;;;;38.53;19.52;;;;;;;2.41;100.00;99012.91;10354719;28;20129;-80
2022/12/20 03:40:16;;;;;;;39.30;19.17;;;;;;;2.56;100.00;99036.88;10356340;28;20038;-79
2022/12/20 03:45:18;;;;;;;37.65;19.50;;;;;;;2.44;100.00;99020.31;10361166;28;20486;-78
2022/12/20 03:50:19;;;;;;;37.75;20.45;;;;;;;2.39;100.00;99030.91;10362482;28;20042;-84
2022/12/20 03:55:20;;;;;;;35.47;20.25;;;;;;;2.31;100.00;99006.72;10386097;28;20044;-80
2022/12/20 04:00:21;;;;;;;34.55;20.30;;;;;;;2.32;100.00;99000.34;10405204;28;20053;-79
2022/12/20 04:05:25;;;;;;;45.17;21.73;;;;;;;2.36;100.00;98999.59;10387145;28;20121;-80
2022/12/20 04:10:26;;;;;;;38.75;19.13;;;;;;;2.51;100.00;98998.94;10413075;28;20046;-77
2022/12/20 04:15:28;;;;;;;33.53;19.00;;;;;;;2.40;100.00;98978.72;10372773;28;20070;-79
2022/12/20 04:20:32;;;;;;;38.90;19.73;;;;;;;2.53;100.00;98976.44;10354574;28;20042;-81
2022/12/20 04:25:47;;;;;;;40.70;20.98;;;;;;;2.51;100.00;98962.63;10368526;28;20034;-77
2022/12/20 04:30:51;;;;;;;37.10;20.02;;;;;;;2.55;100.00;98969.00;10362499;28;20046;-81
2022/12/20 04:35:59;;;;;;;35.97;20.23;;;;;;;2.53;100.00;98962.38;10355189;28;20050;-80
2022/12/20 04:41:01;;;;;;;39.35;20.30;;;;;;;2.54;100.00;98970.06;10348255;28;20050;-81
2022/12/20 04:46:11;;;;;;;35.75;19.27;;;;;;;2.48;100.00;98965.00;10358921;28;20100;-79
2022/12/20 04:51:12;;;;;;;41.35;20.10;;;;;;;2.57;100.00;98966.13;10358335;28;20090;-78
2022/12/20 04:56:24;;;;;;;36.90;19.73;;;;;;;2.63;100.00;98951.84;10372676;28;20042;-77
2022/12/20 05:01:26;;;;;;;37.13;20.40;;;;;;;2.65;100.00;98939.16;10413229;28;20038;-76
2022/12/20 05:06:28;;;;;;;38.60;20.35;;;;;;;2.84;100.00;98947.50;10388920;28;20054;-80
2022/12/20 05:11:29;;;;;;;36.63;19.73;;;;;;;2.85;100.00;98959.72;10378015;28;20623;-80
2022/12/20 05:16:30;;;;;;;40.45;20.88;;;;;;;2.77;100.00;98933.66;10367919;28;20057;-80
2022/12/20 05:26:51;;;;;;;36.08;19.10;;;;;;;2.59;100.00;98931.44;10358828;28;20033;-77
2022/12/20 05:31:53;;;;;;;36.72;20.45;;;;;;;2.46;100.00;98933.44;10360350;28;20042;-80
2022/12/20 05:36:55;;;;;;;37.50;20.08;;;;;;;2.49;100.00;98940.91;10367177;28;20050;-79
2022/12/20 05:41:59;;;;;;;38.08;19.52;;;;;;;2.46;100.00;98930.78;10361876;28;20046;-80
2022/12/20 05:47:02;;;;;;;34.08;18.98;;;;;;;2.43;100.00;98909.31;10354420;28;20049;-79
2022/12/20 05:52:08;;;;;;;38.53;20.20;;;;;;;2.34;100.00;98922.22;10356370;28;20088;-79
2022/12/20 05:57:10;;;;;;;;;;;;;;;2.44;100.00;98942.69;10367619;28;20073;-78
2022/12/20 06:02:14;;;;;;;34.80;19.10;;;;;;;2.43;100.00;98935.81;10352143;28;20655;-84
2022/12/20 06:07:15;;;;;;;39.10;21.48;;;;;;;2.50;100.00;98933.75;10389519;28;20417;-81
2022/12/20 06:12:19;;;;;;;42.08;21.75;;;;;;;2.45;100.00;98915.94;10360250;28;20200;-83
2022/12/20 06:17:23;;;;;;;37.33;19.85;;;;;;;2.44;100.00;98926.81;10372615;28;20065;-82
2022/12/20 06:22:25;;;;;;;40.40;21.65;;;;;;;2.44;100.00;98930.25;10360002;28;20102;-83
2022/12/20 06:27:30;;;;;;;38.38;20.08;;;;;;;2.43;100.00;98930.50;10344206;28;20111;-81
2022/12/20 06:32:39;;;;;;;41.58;21.20;;;;;;;2.75;100.00;98936.59;10377987;28;20050;-81
2022/12/20 06:37:42;;;;;;;40.13;20.98;;;;;;;2.64;100.00;98932.25;10353138;28;20173;-78
2022/12/20 06:42:44;;;;;;;41.63;21.98;;;;;;;2.60;100.00;98935.69;10357219;28;20482;-79
2022/12/20 06:47:46;;;;;;;40.50;22.85;;;;;;;2.63;100.00;98948.41;10355490;28;20046;-80
2022/12/20 06:52:46;;;;;;;36.50;20.55;;;;;;;2.73;100.00;98946.63;10350117;28;20437;-80
2022/12/20 06:57:47;;;;;;;35.90;19.10;;;;;;;2.87;100.00;98957.59;10360413;28;20049;-76
2022/12/20 07:02:51;;;;;;;38.13;20.27;;;;;;;2.95;100.00;98966.94;10377594;28;20046;-78
2022/12/20 07:07:51;;;;;;;35.40;19.65;;;;;;;3.04;100.00;98965.38;10355107;28;20043;-77
2022/12/20 07:12:52;;;;;;;40.22;20.45;;;;;;;2.90;100.00;98932.41;10355287;28;20074;-78
2022/12/20 07:17:52;;;;;;;37.92;20.52;;;;;;;2.90;100.00;98941.16;10351742;28;20053;-77
2022/12/20 07:22:53;;;;;;;39.13;20.67;;;;;;;2.88;100.00;98924.72;10360355;28;20042;-83
2022/12/20 07:27:54;;;;;;;40.28;22.55;;;;;;;2.87;100.00;98925.78;10383530;28;20065;-81
2022/12/20 07:32:56;;;;;;;36.92;21.25;;;;;;;2.89;100.00;98928.16;10394737;28;20050;-78
2022/12/20 07:37:56;;;;;;;42.88;22.05;;;;;;;2.91;100.00;98923.41;10404904;28;20049;-78
2022/12/20 07:42:57;;;;;;;36.35;21.40;;;;;;;3.01;100.00;98903.03;10386385;28;20065;-82
2022/12/20 07:47:58;;;;;;;36.90;21.40;;;;;;;3.08;100.00;98924.81;10390790;28;20104;-79
2022/12/20 07:53:01;;;;;;;33.38;18.80;;;;;;;3.52;100.00;98924.47;10406837;28;20095;-80
2022/12/20 07:58:05;;;;;;;36.70;20.00;;;;;;;3.20;100.00;98902.59;10403992;28;20086;-80
2022/12/20 08:03:20;;;;;;;36.47;19.73;;;;;;;3.13;100.00;98898.34;10372742;28;20046;-80
2022/12/20 08:08:21;;;;;;;37.60;21.30;;;;;;;3.12;100.00;98898.59;10356864;28;20049;-79
2022/12/20 08:13:22;;;;;;;34.75;19.35;;;;;;;3.22;100.00;98898.66;10351908;28;20033;-79
2022/12/20 08:18:22;;;;;;;33.83;19.77;;;;;;;3.27;100.00;98898.66;10344778;28;20038;-81
2022/12/20 08:23:23;;;;;;;32.55;18.58;;;;;;;3.37;100.00;98890.72;10350879;28;20042;-81
2022/12/20 08:28:23;;;;;;;39.88;20.02;;;;;;;3.56;100.00;98861.84;10358845;28;20046;-78
2022/12/20 08:33:26;;;;;;;31.25;18.33;;;;;;;3.63;100.00;98880.19;10354804;28;20744;-79
2022/12/20 08:38:28;;;;;;;33.08;18.98;;;;;;;3.92;100.00;98867.22;10370872;28;20105;-78
2022/12/20 08:43:29;;;;;;;32.65;17.58;;;;;;;4.08;100.00;98875.97;10360388;28;20041;-80
2022/12/20 08:48:31;;;;;;;33.97;18.40;;;;;;;3.92;100.00;98883.94;10366226;28;20116;-80
2022/12/20 08:53:33;;;;;;;32.58;17.65;;;;;;;4.10;100.00;98864.03;10362521;28;20050;-78
2022/12/20 08:58:34;;;;;;;32.42;18.60;;;;;;;4.13;100.00;98847.56;10355586;28;20472;-79
2022/12/20 09:03:36;;;;;;;29.52;17.77;;;;;;;4.16;100.00;98854.22;10359469;28;20052;-83
2022/12/20 09:08:38;;;;;;;32.67;18.02;;;;;;;4.21;100.00;98855.00;10360606;28;20046;-77
2022/12/20 09:13:39;;;;;;;30.52;18.20;;;;;;;4.30;100.00;98860.59;10354473;28;20054;-78
2022/12/20 09:18:40;;;;;;;27.35;17.23;;;;;;;4.48;100.00;98869.84;10375419;28;20046;-77
2022/12/20 09:23:41;;;;;;;32.20;18.10;;;;;;;4.58;100.00;98867.19;10402702;28;20129;-78
2022/12/20 09:28:43;;;;;;;28.40;18.27;;;;;;;4.57;100.00;98854.94;10413260;28;20034;-75
2022/12/20 09:33:44;;;;;;;29.02;17.42;;;;;;;4.66;100.00;98858.63;10374601;28;20042;-78
2022/12/20 09:38:45;;;;;;;30.77;18.13;;;;;;;4.38;100.00;98857.38;10378036;28;20049;-77
2022/12/20 09:43:46;;;;;;;26.75;16.80;;;;;;;4.51;100.00;98854.16;10365629;28;20078;-79
2022/12/20 09:48:48;;;;;;;31.13;18.17;;;;;;;4.47;100.00;98850.44;10363210;28;20084;-78
2022/12/20 09:54:17;;;;;;;33.90;18.02;;;;;;;4.48;100.00;98838.78;10345179;28;20068;-78
2022/12/20 09:59:18;;;;;;;29.23;16.90;;;;;;;4.63;100.00;98808.69;10368219;28;20042;-78
2022/12/20 10:04:27;;;;;;;28.92;16.77;;;;;;;4.63;100.00;98805.22;10369109;28;20708;-79
2022/12/20 10:09:59;;;;;;;29.17;16.85;;;;;;;4.60;100.00;98792.47;10365235;28;20080;-78
2022/12/20 10:15:37;;;;;;;27.70;16.52;;;;;;;4.87;100.00;98802.75;10358260;28;20592;-79
2022/12/20 10:20:50;;;;;;;27.27;15.55;;;;;;;4.87;100.00;98798.22;10356585;28;20072;-79
2022/12/20 10:25:53;;;;;;;27.90;16.58;;;;;;;5.10;100.00;98794.13;10353502;28;20046;-78
2022/12/20 10:31:04;;;;;;;25.52;15.57;;;;;;;5.16;100.00;98758.44;10365111;28;20050;-80
2022/12/20 10:36:30;;;;;;;25.30;15.30;;;;;;;5.31;100.00;98766.34;10365490;28;20054;-79
2022/12/20 10:41:40;;;;;;;28.70;16.50;;;;;;;5.36;100.00;98766.28;10388476;28;20116;-79
2022/12/20 10:46:47;;;;;;;23.20;14.32;;;;;;;5.52;100.00;98759.00;10363980;28;20050;-79
2022/12/20 10:51:53;;;;;;;23.75;13.90;;;;;;;5.65;100.00;98757.56;10369795;28;20090;-80
2022/12/20 10:56:56;;;;;;;25.77;13.43;;;;;;;5.61;100.00;98761.88;10375489;28;20026;-78
2022/12/20 11:01:57;;;;;;;22.25;13.02;;;;;;;5.78;100.00;98764.13;10363032;28;20523;-79
2022/12/20 11:07:00;;;;;;;22.23;14.40;;;;;;;5.65;100.00;98755.69;10358369;28;20128;-79
2022/12/20 11:12:00;;;;;;;23.23;14.13;;;;;;;5.63;100.00;98735.75;10358692;28;20042;-80
2022/12/20 11:17:18;;;;;;;28.02;15.57;;;;;;;5.40;100.00;98735.41;10364708;28;20441;-80
2022/12/20 11:22:36;;;;;;;24.77;14.82;;;;;;;5.38;100.00;98713.56;10369609;28;20038;-82
2022/12/20 11:27:45;;;;;;;23.95;14.57;;;;;;;5.63;100.00;98725.91;10363150;28;20453;-82
2022/12/20 11:33:07;;;;;;;23.23;14.18;;;;;;;5.65;100.00;98729.06;10365290;28;20208;-81
2022/12/20 11:38:40;;;;;;;27.15;15.13;;;;;;;5.52;100.00;98715.63;10356345;28;20054;-82
2022/12/20 11:44:06;;;;;;;21.92;13.82;;;;;;;5.58;100.00;98720.63;10328955;28;20089;-82
2022/12/20 11:49:09;;;;;;;23.40;14.30;;;;;;;5.48;100.00;98707.38;10366778;28;20069;-83
2022/12/20 11:54:27;;;;;;;21.88;13.23;;;;;;;5.36;100.00;98681.13;10366180;28;20045;-82
2022/12/20 11:59:57;;;;;;;24.38;14.90;;;;;;;5.38;100.00;98681.63;10368177;28;20077;-81
2022/12/20 12:05:03;;;;;;;24.90;13.52;;;;;;;5.33;100.00;98676.38;10346674;28;20057;-82
2022/12/20 12:10:23;;;;;;;26.02;15.07;;;;;;;5.36;100.00;98678.47;10357563;28;20038;-82
2022/12/20 12:15:38;;;;;;;22.52;13.02;;;;;;;5.40;100.00;98682.16;10358051;28;20042;-82
2022/12/20 12:21:05;;;;;;;22.42;13.95;;;;;;;5.31;100.00;98659.09;10358798;28;20053;-81
2022/12/20 12:26:20;;;;;;;25.67;16.08;;;;;;;5.58;100.00;98653.28;10351461;28;20046;-79
2022/12/20 12:31:35;;;;;;;24.45;14.85;;;;;;;5.81;100.00;98649.81;10357632;28;20122;-79
2022/12/20 12:37:10;;;;;;;21.50;13.15;;;;;;;5.82;100.00;98650.63;10378951;28;20042;-78
2022/12/20 12:42:38;;;;;;;22.98;12.95;;;;;;;5.83;100.00;98644.22;10344978;28;20041;-79
2022/12/20 12:47:46;;;;;;;21.02;13.52;;;;;;;5.93;100.00;98636.13;10349188;28;20057;-79
2022/12/20 12:52:54;;;;;;;18.77;11.95;;;;;;;5.92;100.00;98630.03;10359921;28;20866;-82
2022/12/20 12:57:57;;;;;;;20.80;12.98;;;;;;;5.93;100.00;98631.59;10360657;28;20047;-80
2022/12/20 13:02:57;;;;;;;22.65;13.55;;;;;;;6.03;100.00;98624.56;10360489;28;20049;-80
2022/12/20 13:07:59;;;;;;;20.70;12.90;;;;;;;6.07;100.00;98610.41;10368838;28;20811;-80
2022/12/20 13:13:01;;;;;;;18.05;11.70;;;;;;;5.88;100.00;98604.22;10359136;28;20057;-79
2022/12/20 13:18:23;;;;;;;22.25;12.80;;;;;;;5.85;100.00;98594.13;10365640;28;20047;-80
2022/12/20 13:23:24;;;;;;;20.15;12.98;;;;;;;5.76;100.00;98588.66;10371594;28;20135;-80
2022/12/20 13:28:24;;;;;;;21.33;11.98;;;;;;;5.93;100.00;98588.97;10397913;28;20034;-78
2022/12/20 13:33:46;;;;;;;19.33;12.82;;;;;;;5.99;100.00;98581.72;10420719;28;20030;-79
2022/12/20 13:38:46;;;;;;;18.92;12.40;;;;;;;5.89;100.00;98585.28;10413890;28;20042;-78
2022/12/20 13:43:49;;;;;;;20.10;12.77;;;;;;;5.71;100.00;98600.13;10399051;28;20021;-79
2022/12/20 13:49:01;;;;;;;19.00;11.87;;;;;;;5.65;100.00;98605.78;10411808;28;20110;-78
2022/12/20 13:54:13;;;;;;;18.63;11.73;;;;;;;5.70;100.00;98614.53;10398628;28;20313;-77
2022/12/20 13:59:44;;;;;;;18.02;12.02;;;;;;;5.69;100.00;98617.47;10372377;28;20037;-77
2022/12/20 14:04:51;;;;;;;23.45;13.55;;;;;;;5.59;100.00;98622.91;10357578;28;20136;-77
2022/12/20 14:09:59;;;;;;;20.17;12.93;;;;;;;5.32;100.00;98634.84;10358693;28;20145;-79
2022/12/20 14:15:00;;;;;;;21.13;12.38;;;;;;;5.18;100.00;98622.47;10356579;28;20057;-78
2022/12/20 14:20:30;;;;;;;23.08;13.75;;;;;;;5.19;100.00;98600.09;10349855;28;20160;-78
2022/12/20 14:25:36;;;;;;;22.42;13.73;;;;;;;5.04;100.00;98588.53;10350710;28;21606;-78
2022/12/20 14:30:42;;;;;;;24.00;14.32;;;;;;;5.16;100.00;98588.16;10354092;28;21093;-78
2022/12/20 14:35:50;;;;;;;26.70;14.35;;;;;;;5.29;100.00;98576.06;10369679;28;20057;-77
2022/12/20 14:40:51;;;;;;;22.50;13.82;;;;;;;5.34;100.00;98558.19;10356553;28;20046;-76
2022/12/20 14:46:20;;;;;;;26.10;14.02;;;;;;;5.37;100.00;98544.31;10380935;28;20085;-76
2022/12/20 14:51:20;;;;;;;19.35;13.10;;;;;;;5.42;100.00;98556.78;10381428;28;20050;-77
2022/12/20 14:56:21;;;;;;;22.90;14.32;;;;;;;5.47;100.00;98539.94;10360449;28;20045;-77
2022/12/20 15:01:26;;;;;;;21.27;13.50;;;;;;;5.45;100.00;98531.47;10355949;28;20061;-77
2022/12/20 15:06:53;;;;;;;21.05;12.55;;;;;;;5.43;100.00;98540.53;10357191;28;20042;-76
2022/12/20 15:11:55;;;;;;;21.38;13.18;;;;;;;5.31;100.00;98555.31;10335390;28;20046;-76
2022/12/20 15:16:57;;;;;;;20.80;12.50;;;;;;;5.05;100.00;98539.56;10355305;28;20034;-78
2022/12/20 15:21:57;;;;;;;23.67;13.30;;;;;;;5.20;100.00;98530.63;10346302;28;20058;-80
2022/12/20 15:26:59;;;;;;;21.13;12.98;;;;;;;5.16;100.00;98534.16;10370687;28;20082;-79
2022/12/20 15:32:08;;;;;;;21.55;12.88;;;;;;;5.16;100.00;98536.81;10366938;28;20042;-78
2022/12/20 15:37:13;;;;;;;20.17;12.75;;;;;;;5.10;100.00;98554.69;10361815;28;20046;-78
2022/12/20 15:42:17;;;;;;;24.33;13.15;;;;;;;4.97;100.00;98547.38;10358278;28;20050;-77
2022/12/20 15:47:17;;;;;;;23.52;14.90;;;;;;;4.99;100.00;98531.91;10363315;28;20116;-77
2022/12/20 15:52:20;;;;;;;26.52;14.38;;;;;;;4.97;100.00;98532.19;10366429;28;20091;-77
2022/12/20 15:57:21;;;;;;;25.03;14.93;;;;;;;4.96;100.00;98527.16;10353829;28;20042;-77
2022/12/20 16:02:24;;;;;;;20.45;13.63;;;;;;;4.93;100.00;98530.34;10354546;28;20046;-78
2022/12/20 16:07:26;;;;;;;23.20;14.25;;;;;;;4.78;100.00;98542.72;10351262;28;20085;-77
2022/12/20 16:12:31;;;;;;;23.50;15.52;;;;;;;4.66;100.00;98539.63;10354615;28;20037;-77
2022/12/20 16:17:31;;;;;;;26.55;15.10;;;;;;;4.79;100.00;98532.88;10347230;28;20042;-76
2022/12/20 16:22:32;;;;;;;25.45;14.77;;;;;;;4.89;100.00;98522.16;10342959;28;20045;-79
2022/12/20 16:27:32;;;;;;;28.88;15.23;;;;;;;4.84;100.00;98532.81;10351991;28;20406;-79
2022/12/20 16:32:33;;;;;;;26.15;15.90;;;;;;;4.60;100.00;98524.78;10352594;28;20042;-78
2022/12/20 16:37:33;;;;;;;23.40;14.38;;;;;;;4.47;100.00;98507.59;10353806;28;20046;-78
2022/12/20 16:42:34;;;;;;;22.77;13.82;;;;;;;4.33;100.00;98488.03;10357795;28;20137;-78
2022/12/20 16:47:34;;;;;;;25.73;15.10;;;;;;;4.40;100.00;98463.81;10356004;28;20783;-79
2022/12/20 16:52:36;;;;;;;27.08;15.10;;;;;;;4.57;100.00;98499.56;10349499;28;20387;-77
2022/12/20 16:57:36;;;;;;;25.50;14.85;;;;;;;4.45;100.00;98487.69;10352966;28;21496;-81
2022/12/20 17:02:37;;;;;;;25.48;14.13;;;;;;;4.44;100.00;98475.47;10361599;28;20057;-78
2022/12/20 17:07:37;;;;;;;24.27;15.88;;;;;;;4.58;100.00;98484.41;10369175;28;20050;-78
2022/12/20 17:12:38;;;;;;;22.90;14.00;;;;;;;4.53;100.00;98471.16;10366167;28;20038;-79
2022/12/20 17:17:39;;;;;;;24.88;14.45;;;;;;;4.36;100.00;98473.41;10365120;28;20049;-76
2022/12/20 17:22:40;;;;;;;31.42;16.10;;;;;;;4.39;100.00;98478.97;10368484;28;20473;-77
2022/12/20 17:27:41;;;;;;;27.45;16.58;;;;;;;4.32;100.00;98483.00;10362181;28;20177;-80
2022/12/20 17:32:42;;;;;;;27.50;14.95;;;;;;;4.18;100.00;98480.97;10361567;28;20482;-79
2022/12/20 17:37:43;;;;;;;31.23;16.58;;;;;;;4.40;100.00;98506.34;10374702;28;20046;-77
2022/12/20 17:42:43;;;;;;;27.65;16.38;;;;;;;4.41;100.00;98518.56;10368478;28;20046;-82
2022/12/20 17:47:44;;;;;;;27.08;15.27;;;;;;;4.10;100.00;98508.09;10365348;28;20053;-79
2022/12/20 17:52:46;;;;;;;28.45;15.00;;;;;;;4.07;100.00;98499.91;10365934;28;20124;-82
2022/12/20 17:57:47;;;;;;;25.02;15.02;;;;;;;3.84;100.00;98515.44;10374568;28;20101;-81
2022/12/20 18:02:48;;;;;;;28.77;16.23;;;;;;;3.94;100.00;98515.38;10385746;28;21157;-77
2022/12/20 18:07:53;;;;;;;27.73;16.83;;;;;;;4.22;100.00;98531.69;10358903;28;20039;-79
2022/12/20 18:12:55;;;;;;;30.65;17.25;;;;;;;4.12;100.00;98535.22;10352339;28;20047;-78
2022/12/20 18:17:56;;;;;;;26.90;15.80;;;;;;;4.26;100.00;98535.38;10356291;28;20055;-78
2022/12/20 18:22:56;;;;;;;28.02;16.45;;;;;;;4.17;100.00;98526.41;10364970;28;20402;-79
2022/12/20 18:27:57;;;;;;;29.13;15.70;;;;;;;4.07;100.00;98508.66;10389133;28;20046;-76
2022/12/20 18:32:57;;;;;;;26.58;15.45;;;;;;;4.31;100.00;98508.00;10375267;28;20029;-79
2022/12/20 18:37:58;;;;;;;27.50;16.98;;;;;;;4.30;100.00;98512.53;10363927;28;20125;-77
2022/12/20 18:42:59;;;;;;;31.05;17.55;;;;;;;4.31;100.00;98502.69;10380708;28;20042;-76
2022/12/20 18:48:00;;;;;;;33.45;18.15;;;;;;;4.45;100.00;98488.47;10382679;28;20069;-78
2022/12/20 18:53:00;;;;;;;29.05;16.67;;;;;;;4.48;100.00;98501.22;10379425;28;20810;-78
2022/12/20 18:58:01;;;;;;;29.00;16.48;;;;;;;4.34;100.00;98480.88;10373936;28;20622;-77
2022/12/20 19:03:01;;;;;;;29.38;15.98;;;;;;;4.37;100.00;98461.69;10359670;28;20088;-78
2022/12/20 19:08:02;;;;;;;27.38;17.02;;;;;;;4.31;100.00;98442.38;10376085;28;20042;-78
2022/12/20 19:13:04;;;;;;;27.75;16.50;;;;;;;4.55;100.00;98443.22;10365990;28;20042;-78
2022/12/20 19:18:05;;;;;;;31.38;17.08;;;;;;;4.28;100.00;98441.03;10376603;28;20046;-79
2022/12/20 19:23:07;;;;;;;30.83;17.43;;;;;;;4.14;100.00;98434.00;10354281;28;20050;-77
2022/12/20 19:28:08;;;;;;;31.38;17.23;;;;;;;4.29;100.00;98439.97;10361536;28;20053;-78
2022/12/20 19:33:09;;;;;;;27.40;15.68;;;;;;;4.44;100.00;98430.28;10356927;28;20038;-77
2022/12/20 19:38:09;;;;;;;28.13;16.38;;;;;;;4.43;100.00;98423.41;10336113;28;20057;-78
2022/12/20 19:43:10;;;;;;;31.35;17.73;;;;;;;4.30;100.00;98411.56;10358917;28;20465;-77
2022/12/20 19:48:10;;;;;;;25.30;16.38;;;;;;;4.48;100.00;98418.84;10350435;28;20380;-77
2022/12/20 19:53:12;;;;;;;28.58;17.23;;;;;;;4.57;100.00;98421.66;10367373;28;20169;-78
2022/12/20 19:58:12;;;;;;;31.38;17.48;;;;;;;4.40;100.00;98422.09;10368095;28;20482;-77
2022/12/20 20:03:13;;;;;;;29.58;15.98;;;;;;;4.46;100.00;98420.16;10356657;28;20108;-77
2022/12/20 20:08:14;;;;;;;31.70;17.02;;;;;;;4.53;100.00;98431.28;10357355;28;20057;-77
2022/12/20 20:13:14;;;;;;;26.88;15.52;;;;;;;4.42;100.00;98427.13;10357354;28;20050;-79
2022/12/20 20:18:15;;;;;;;29.15;17.55;;;;;;;4.26;100.00;98426.44;10358426;28;20577;-81
2022/12/20 20:23:16;;;;;;;32.78;17.42;;;;;;;4.42;100.00;98425.25;10353734;28;20042;-78
2022/12/20 20:28:17;;;;;;;32.35;17.10;;;;;;;4.33;100.00;98403.03;10335034;28;20045;-79
2022/12/20 20:33:17;;;;;;;34.80;18.35;;;;;;;4.64;100.00;98395.56;10362165;28;20486;-79
2022/12/20 20:38:19;;;;;;;31.80;17.90;;;;;;;4.64;100.00;98411.50;10370844;28;20049;-77
2022/12/20 20:43:20;;;;;;;33.00;18.33;;;;;;;4.78;100.00;98422.28;10360546;28;20220;-78
2022/12/20 20:48:21;;;;;;;32.03;16.75;;;;;;;4.76;100.00;98425.22;10360368;28;20046;-78
2022/12/20 20:53:21;;;;;;;35.50;18.38;;;;;;;4.76;100.00;98408.47;10362918;28;20050;-78
2022/12/20 20:58:25;;;;;;;28.17;17.15;;;;;;;4.86;100.00;98424.34;10399186;28;20456;-78
2022/12/20 21:03:28;;;;;;;29.58;17.23;;;;;;;4.89;100.00;98426.41;10366168;28;20098;-77
2022/12/20 21:08:28;;;;;;;30.73;19.02;;;;;;;4.90;100.00;98405.94;10356905;28;20478;-78
2022/12/20 21:13:30;;;;;;;30.67;16.88;;;;;;;5.07;100.00;98393.78;10368949;28;20041;-78
2022/12/20 21:18:32;;;;;;;32.72;16.92;;;;;;;4.98;100.00;98395.47;10356166;28;20427;-78
2022/12/20 21:23:32;;;;;;;31.98;17.52;;;;;;;4.99;100.00;98394.38;10350568;28;20042;-78
2022/12/20 21:28:34;;;;;;;31.00;17.90;;;;;;;4.87;100.00;98391.34;10359985;28;20513;-76
2022/12/20 21:33:35;;;;;;;32.30;18.33;;;;;;;4.89;100.00;98404.34;10355706;28;20050;-78
2022/12/20 21:38:35;;;;;;;35.50;18.25;;;;;;;4.94;100.00;98398.97;10353792;28;20474;-77
2022/12/20 21:43:37;;;;;;;30.80;17.25;;;;;;;4.89;100.00;98404.34;10360458;28;20079;-76
2022/12/20 21:48:39;;;;;;;31.30;17.55;;;;;;;4.88;100.00;98413.41;10361330;28;20097;-78
2022/12/20 21:53:43;;;;;;;30.75;17.98;;;;;;;4.94;100.00;98413.09;10358222;28;20069;-77
2022/12/20 21:58:44;;;;;;;33.50;18.65;;;;;;;4.88;100.00;98421.38;10363046;28;20486;-77
2022/12/20 22:03:48;;;;;;;31.42;17.70;;;;;;;4.84;100.00;98413.16;10359277;28;20049;-77
2022/12/20 22:08:48;;;;;;;30.67;18.05;;;;;;;4.89;100.00;98415.78;10368122;28;20046;-79
2022/12/20 22:13:55;;;;;;;32.22;18.27;;;;;;;4.81;100.00;98422.50;10361656;28;20050;-78
2022/12/20 22:18:57;;;;;;;36.13;18.17;;;;;;;4.87;100.00;98401.19;10347150;28;20064;-76
2022/12/20 22:23:59;;;;;;;35.40;19.27;;;;;;;4.90;100.00;98422.69;10357958;28;20136;-77
2022/12/20 22:29:04;;;;;;;32.13;18.23;;;;;;;4.83;100.00;98440.84;10361185;28;20401;-76
2022/12/20 22:34:05;;;;;;;36.78;19.58;;;;;;;4.83;100.00;98440.84;10343708;28;20058;-76
2022/12/20 22:39:08;;;;;;;36.35;20.17;;;;;;;4.87;100.00;98447.19;10339116;28;20501;-77
2022/12/20 22:44:08;;;;;;;37.70;20.67;;;;;;;4.84;100.00;98461.81;10353128;28;20050;-76
2022/12/20 22:49:16;;;;;;;41.60;20.67;;;;;;;4.61;100.00;98451.94;10346001;28;20046;-77
2022/12/20 22:54:17;;;;;;;35.92;19.58;;;;;;;4.74;100.00;98440.66;10352486;28;20045;-77
2022/12/20 22:59:18;;;;;;;44.45;22.70;;;;;;;4.74;100.00;98434.53;10356579;28;20049;-77
2022/12/20 23:04:18;;;;;;;37.33;20.38;;;;;;;4.77;100.00;98436.66;10360705;28;20054;-77
2022/12/20 23:09:19;;;;;;;37.00;19.70;;;;;;;4.80;100.00;98420.91;10350546;28;20041;-78
2022/12/20 23:25:16;;;;;;;34.10;18.98;;;;;;;4.74;100.00;98447.81;10343140;28;20054;-76